Atlantic Elm — 9HA3054 — position and weather

sailwx.info

Track history (hours):
 
Tides and Currents Weather Stations Pressure Air Temp Water Temp Dewpoint Dewpoint Depression Visibility Wind Speed Wind Dir Waves Ship Positions

Atlantic Elm

Last reported at 2014-Jul-16 16:25 UTC. Time now 2014-Jul-23 16:00 UTC.
Position N 57°47' E 009°55'.

Length 190 m; draft 10.1 m.

Type: Cargo ship. MMSI: 229081000.

Date/timePositionNaut miles runAvg speedWind from/ knotsBaromVisibWave heightAir tempDewpointWater temp
2014-Jul-16 16:25N 57°47' E 009°55'8 9.5
2014-Jul-16 15:33N 57°48' E 010°11'9 9.3
2014-Jul-16 14:33N 57°50' E 010°28'9 8.9
2014-Jul-16 13:33N 57°50' E 010°44'1010.1
2014-Jul-16 12:33N 57°43' E 010°58'10 9.7
2014-Jul-16 11:33N 57°36' E 011°11'1110.7
2014-Jul-16 10:33N 57°29' E 011°25'1110.7
2014-Jul-16 09:33N 57°19' E 011°32'1110.7
2014-Jul-16 08:32N 57°08' E 011°39'1110.6
2014-Jul-16 07:33N 56°59' E 011°46'1010.1
2014-Jul-16 06:32N 56°49' E 011°52'1010.1
2014-Jul-16 05:32N 56°39' E 011°46'1111.4
2014-Jul-16 04:33N 56°34' E 011°28'3511.6
2014-Jul-16 01:33N 56°02' E 011°05'7911.2
2014-Jul-15 18:34N 54°44' E 010°47'1211.8
2014-Jul-15 17:34N 54°36' E 011°02'1312.9
2014-Jul-15 16:33N 54°32' E 011°24'1313.2
2014-Jul-15 15:34N 54°27' E 011°44'1312.9
2014-Jul-15 14:33N 54°26' E 012°06'1110.6
2014-Jul-15 13:34N 54°35' E 012°16'6 6.3
2014-Jul-15 12:33N 54°40' E 012°23'1111.2
2014-Jul-15 11:34N 54°47' E 012°39'1111.1
2014-Jul-15 10:34N 54°51' E 012°57'1111.3
2014-Jul-15 09:33N 54°54' E 013°15'1111.5
2014-Jul-15 08:34N 54°58' E 013°34'1211.4
2014-Jul-15 07:31N 55°02' E 013°54'1111.1
2014-Jul-15 06:30N 55°08' E 014°10'1111.8
2014-Jul-15 05:33N 55°16' E 014°23'1211.9
2014-Jul-15 04:34N 55°26' E 014°36'1211.6
2014-Jul-15 03:33N 55°31' E 014°54'1211.8
2014-Jul-15 02:32N 55°35' E 015°14'1211.9
2014-Jul-15 01:32N 55°39' E 015°34'1711.9
2014-Jul-15 00:07N 55°43' E 016°03'711.6
2014-Jul-14 23:32N 55°45' E 016°15'1210.7
2014-Jul-14 22:22N 55°48' E 016°36'  
2014-Jul-07 18:30N 56°51' E 019°19'1612.3
2014-Jul-07 17:15N 56°37' E 019°07'1212.6
2014-Jul-07 16:18N 56°27' E 018°58'1412.2
2014-Jul-07 15:08N 56°16' E 018°40'712.7
2014-Jul-07 14:34N 56°12' E 018°29'1312.7
2014-Jul-07 13:34N 56°06' E 018°10'1312.8
2014-Jul-07 12:33N 55°59' E 017°50'1312.5
2014-Jul-07 11:34N 55°54' E 017°30'1312.7
2014-Jul-07 10:30N 55°51' E 017°06'1812.8
2014-Jul-07 09:04N 55°46' E 016°35'2012.7
2014-Jul-07 07:28N 55°41' E 015°60'1212.8
2014-Jul-07 06:33N 55°38' E 015°40'1312.9
2014-Jul-07 05:34N 55°35' E 015°18'1313.0
2014-Jul-07 04:34N 55°30' E 014°57'1312.8
2014-Jul-07 03:34N 55°23' E 014°37'1313.1
2014-Jul-07 02:33N 55°13' E 014°23'1111.1
2014-Jul-07 01:33N 55°10' E 014°05'1212.3
2014-Jul-07 00:34N 55°10' E 013°43'1212.4
2014-Jul-06 23:33N 55°11' E 013°21'1212.3
2014-Jul-06 22:33N 55°13' E 013°00'1211.9
2014-Jul-06 21:33N 55°17' E 012°41'1110.9
2014-Jul-06 20:34N 55°28' E 012°41'1010.3
2014-Jul-06 19:33N 55°39' E 012°41'1312.6
2014-Jul-06 18:33N 55°51' E 012°41'1312.7
2014-Jul-06 17:33N 56°04' E 012°38'9 9.4
2014-Jul-06 16:33N 56°10' E 012°25'  
Track history (hours):
 
Tides and Currents Weather Stations Pressure Air Temp Water Temp Dewpoint Dewpoint Depression Visibility Wind Speed Wind Dir Waves Ship Positions

Atlantic Elm

Last reported at 2014-Jul-16 16:25 UTC. Time now 2014-Jul-23 16:00 UTC.
Position N 57°47' E 009°55'.

Length 190 m; draft 10.1 m.

Type: Cargo ship. MMSI: 229081000.

Date/timePositionNaut miles runAvg speedWind from/ knotsBaromVisibWave heightAir tempDewpointWater temp
2014-Jul-16 16:25N 57°47' E 009°55'8 9.5
2014-Jul-16 15:33N 57°48' E 010°11'9 9.3
2014-Jul-16 14:33N 57°50' E 010°28'9 8.9
2014-Jul-16 13:33N 57°50' E 010°44'1010.1
2014-Jul-16 12:33N 57°43' E 010°58'10 9.7
2014-Jul-16 11:33N 57°36' E 011°11'1110.7
2014-Jul-16 10:33N 57°29' E 011°25'1110.7
2014-Jul-16 09:33N 57°19' E 011°32'1110.7
2014-Jul-16 08:32N 57°08' E 011°39'1110.6
2014-Jul-16 07:33N 56°59' E 011°46'1010.1
2014-Jul-16 06:32N 56°49' E 011°52'1010.1
2014-Jul-16 05:32N 56°39' E 011°46'1111.4
2014-Jul-16 04:33N 56°34' E 011°28'3511.6
2014-Jul-16 01:33N 56°02' E 011°05'7911.2
2014-Jul-15 18:34N 54°44' E 010°47'1211.8
2014-Jul-15 17:34N 54°36' E 011°02'1312.9
2014-Jul-15 16:33N 54°32' E 011°24'1313.2
2014-Jul-15 15:34N 54°27' E 011°44'1312.9
2014-Jul-15 14:33N 54°26' E 012°06'1110.6
2014-Jul-15 13:34N 54°35' E 012°16'6 6.3
2014-Jul-15 12:33N 54°40' E 012°23'1111.2
2014-Jul-15 11:34N 54°47' E 012°39'1111.1
2014-Jul-15 10:34N 54°51' E 012°57'1111.3
2014-Jul-15 09:33N 54°54' E 013°15'1111.5
2014-Jul-15 08:34N 54°58' E 013°34'1211.4
2014-Jul-15 07:31N 55°02' E 013°54'1111.1
2014-Jul-15 06:30N 55°08' E 014°10'1111.8
2014-Jul-15 05:33N 55°16' E 014°23'1211.9
2014-Jul-15 04:34N 55°26' E 014°36'1211.6
2014-Jul-15 03:33N 55°31' E 014°54'1211.8
2014-Jul-15 02:32N 55°35' E 015°14'1211.9
2014-Jul-15 01:32N 55°39' E 015°34'1711.9
2014-Jul-15 00:07N 55°43' E 016°03'711.6
2014-Jul-14 23:32N 55°45' E 016°15'1210.7
2014-Jul-14 22:22N 55°48' E 016°36'  
2014-Jul-07 18:30N 56°51' E 019°19'1612.3
2014-Jul-07 17:15N 56°37' E 019°07'1212.6
2014-Jul-07 16:18N 56°27' E 018°58'1412.2
2014-Jul-07 15:08N 56°16' E 018°40'712.7
2014-Jul-07 14:34N 56°12' E 018°29'1312.7
2014-Jul-07 13:34N 56°06' E 018°10'1312.8
2014-Jul-07 12:33N 55°59' E 017°50'1312.5
2014-Jul-07 11:34N 55°54' E 017°30'1312.7
2014-Jul-07 10:30N 55°51' E 017°06'1812.8
2014-Jul-07 09:04N 55°46' E 016°35'2012.7
2014-Jul-07 07:28N 55°41' E 015°60'1212.8
2014-Jul-07 06:33N 55°38' E 015°40'1312.9
2014-Jul-07 05:34N 55°35' E 015°18'1313.0
2014-Jul-07 04:34N 55°30' E 014°57'1312.8
2014-Jul-07 03:34N 55°23' E 014°37'1313.1
2014-Jul-07 02:33N 55°13' E 014°23'1111.1
2014-Jul-07 01:33N 55°10' E 014°05'1212.3
2014-Jul-07 00:34N 55°10' E 013°43'1212.4
2014-Jul-06 23:33N 55°11' E 013°21'1212.3
2014-Jul-06 22:33N 55°13' E 013°00'1211.9
2014-Jul-06 21:33N 55°17' E 012°41'1110.9
2014-Jul-06 20:34N 55°28' E 012°41'1010.3
2014-Jul-06 19:33N 55°39' E 012°41'1312.6
2014-Jul-06 18:33N 55°51' E 012°41'1312.7
2014-Jul-06 17:33N 56°04' E 012°38'9 9.4
2014-Jul-06 16:33N 56°10' E 012°25'  

Dump ship's entire track history